createdAt,value
2019-04-30T00:01:59.088Z,77.04
2019-04-30T00:04:40.232Z,77.23
2019-04-30T00:07:05.682Z,77.06
2019-04-30T00:09:35.068Z,76.36
2019-04-30T00:12:02.511Z,75.81
2019-04-30T00:14:37.146Z,75.74
2019-04-30T00:16:58.921Z,75.39
2019-04-30T00:19:26.131Z,75.17
2019-04-30T00:21:56.894Z,74.92
2019-04-30T00:24:22.284Z,74.58
2019-04-30T00:26:52.400Z,74.14
2019-04-30T00:29:26.431Z,74.23
2019-04-30T00:31:47.532Z,74.38
2019-04-30T00:34:15.148Z,74.19
2019-04-30T00:36:42.638Z,74.08
2019-04-30T00:39:13.347Z,73.96
2019-04-30T00:41:39.972Z,73.55
2019-04-30T00:44:08.106Z,73.38
2019-04-30T00:46:36.458Z,73.72
2019-04-30T00:49:09.814Z,73.76
2019-04-30T00:51:32.961Z,73.97
2019-04-30T00:54:00.125Z,73.95
2019-04-30T00:56:28.363Z,74.35
2019-04-30T00:58:57.714Z,74.22
2019-04-30T01:01:53.788Z,74.31
2019-04-30T01:04:28.137Z,74.46
2019-04-30T01:06:59.965Z,74.34
2019-04-30T01:09:25.671Z,73.86
2019-04-30T01:11:55.191Z,73.49
2019-04-30T01:14:23.222Z,73.53
2019-04-30T01:16:51.478Z,73.37
2019-04-30T01:19:29.493Z,73.00
2019-04-30T01:21:50.452Z,72.91
2019-04-30T01:24:18.921Z,72.69
2019-04-30T01:26:46.254Z,72.85
2019-04-30T01:29:13.538Z,72.94
2019-04-30T01:31:40.865Z,73.01
2019-04-30T01:34:12.342Z,73.10
2019-04-30T01:36:39.266Z,73.24
2019-04-30T01:39:06.604Z,73.15
2019-04-30T01:41:33.726Z,73.12
2019-04-30T01:44:03.729Z,72.99
2019-04-30T01:46:29.979Z,72.86
2019-04-30T01:48:58.555Z,72.89
2019-04-30T01:51:26.038Z,73.09
2019-04-30T01:53:53.247Z,72.58
2019-04-30T01:56:51.572Z,72.44
2019-04-30T01:59:22.367Z,72.46
2019-04-30T02:01:49.580Z,72.49
2019-04-30T02:04:17.347Z,72.67
2019-04-30T02:06:44.520Z,72.61
2019-04-30T02:09:11.688Z,72.28
2019-04-30T02:11:39.628Z,72.20
2019-04-30T02:14:06.773Z,72.32
2019-04-30T02:16:33.945Z,71.71
2019-04-30T02:19:01.332Z,71.60
2019-04-30T02:21:30.037Z,71.81
2019-04-30T02:23:58.891Z,71.46
2019-04-30T02:26:26.187Z,71.37
2019-04-30T02:28:53.372Z,71.27
2019-04-30T02:31:22.977Z,71.17
2019-04-30T02:33:52.513Z,70.95
2019-04-30T02:36:40.436Z,70.97
2019-04-30T02:39:07.159Z,70.92
2019-04-30T02:41:35.678Z,70.53
2019-04-30T02:44:03.039Z,70.66
2019-04-30T02:46:32.308Z,70.83
2019-04-30T02:49:00.313Z,70.86
2019-04-30T02:51:30.426Z,70.76
2019-04-30T02:54:20.331Z,71.04
2019-04-30T02:56:54.703Z,70.89
2019-04-30T02:59:21.901Z,70.48
2019-04-30T03:01:50.213Z,70.44
2019-04-30T03:04:19.671Z,70.10
2019-04-30T03:06:49.997Z,69.98
2019-04-30T03:09:16.249Z,70.00
2019-04-30T03:11:43.479Z,69.76
2019-04-30T03:14:11.076Z,70.01
2019-04-30T03:17:00.375Z,69.84
2019-04-30T03:19:36.755Z,69.52
2019-04-30T03:22:20.302Z,69.38
2019-04-30T03:24:50.053Z,69.55
2019-04-30T03:27:16.710Z,69.33
2019-04-30T03:29:44.515Z,69.44
2019-04-30T03:32:13.958Z,69.81
2019-04-30T03:34:42.454Z,69.20
2019-04-30T03:37:10.153Z,69.14
2019-04-30T03:39:40.092Z,68.14
2019-04-30T03:42:06.700Z,68.25
2019-04-30T03:44:33.892Z,68.19
2019-04-30T03:47:01.043Z,68.81
2019-04-30T03:49:29.915Z,68.39
2019-04-30T03:51:59.607Z,68.83
2019-04-30T03:54:26.249Z,68.66
2019-04-30T03:56:55.305Z,67.73
2019-04-30T03:59:22.484Z,68.08
2019-04-30T04:02:12.945Z,68.45
2019-04-30T04:04:53.354Z,68.39
2019-04-30T04:07:30.058Z,68.39
2019-04-30T04:10:25.612Z,67.89
2019-04-30T04:12:52.837Z,67.37
2019-04-30T04:15:20.136Z,67.11
2019-04-30T04:17:47.160Z,67.44
2019-04-30T04:20:14.368Z,66.59
2019-04-30T04:22:41.571Z,66.66
2019-04-30T04:25:12.721Z,66.73
2019-04-30T04:27:39.256Z,66.80
2019-04-30T04:30:06.798Z,66.78
2019-04-30T04:32:33.992Z,66.82
2019-04-30T04:35:01.216Z,66.88
2019-04-30T04:37:30.171Z,66.55
2019-04-30T04:39:59.546Z,66.12
2019-04-30T04:42:32.355Z,66.01
2019-04-30T04:44:55.922Z,65.32
2019-04-30T04:47:23.155Z,64.60
2019-04-30T04:49:53.758Z,63.12
2019-04-30T04:52:21.632Z,61.67
2019-04-30T04:54:50.686Z,61.36
2019-04-30T04:57:21.335Z,61.19
2019-04-30T04:59:46.826Z,60.57
2019-04-30T05:02:39.899Z,60.73
2019-04-30T05:05:09.472Z,60.50
2019-04-30T05:07:36.659Z,60.52
2019-04-30T05:10:04.483Z,60.18
2019-04-30T05:12:31.624Z,60.17
2019-04-30T05:14:59.756Z,59.90
2019-04-30T05:17:29.700Z,59.75
2019-04-30T05:19:56.410Z,58.36
2019-04-30T05:22:23.688Z,50.66
2019-04-30T05:24:50.874Z,44.02
2019-04-30T05:27:19.778Z,39.42
2019-04-30T05:29:46.963Z,36.88
2019-04-30T05:32:14.042Z,33.58
2019-04-30T05:34:41.180Z,31.16
2019-04-30T05:37:09.044Z,29.00
2019-04-30T05:39:36.291Z,27.19
2019-04-30T05:42:03.398Z,25.73
2019-04-30T05:44:30.564Z,24.58
2019-04-30T05:46:59.207Z,23.70
2019-04-30T05:49:26.471Z,23.42
2019-04-30T05:51:55.965Z,22.09
2019-04-30T05:54:23.049Z,21.61
2019-04-30T05:56:50.202Z,20.47
2019-04-30T05:59:20.422Z,19.59
2019-04-30T06:01:48.801Z,19.55
2019-04-30T06:04:16.040Z,19.27
2019-04-30T06:06:43.227Z,19.07
2019-04-30T06:09:31.075Z,19.13
2019-04-30T06:12:11.403Z,17.90
2019-04-30T06:14:48.872Z,16.90
2019-04-30T06:17:19.577Z,16.49
2019-04-30T06:19:46.480Z,16.70
2019-04-30T06:22:13.640Z,15.55
2019-04-30T06:24:41.174Z,14.35
2019-04-30T06:27:10.496Z,13.62
2019-04-30T06:29:39.086Z,13.54
2019-04-30T06:32:06.326Z,13.18
2019-04-30T06:34:33.824Z,12.32
2019-04-30T06:37:01.487Z,11.99
2019-04-30T06:39:28.896Z,11.87
2019-04-30T06:42:04.929Z,11.22
2019-04-30T06:44:36.930Z,11.55
2019-04-30T06:46:58.839Z,11.01
2019-04-30T06:49:28.860Z,10.70
2019-04-30T06:51:56.128Z,10.20
2019-04-30T06:54:23.319Z,9.97
2019-04-30T06:56:50.526Z,10.93
2019-04-30T06:59:17.708Z,10.00
2019-04-30T07:01:44.936Z,9.89
2019-04-30T07:04:12.120Z,9.89
2019-04-30T07:06:43.998Z,9.32
2019-04-30T07:09:31.621Z,8.34
2019-04-30T07:12:22.939Z,7.99
2019-04-30T07:14:41.981Z,7.98
2019-04-30T07:17:09.535Z,7.82
2019-04-30T07:19:51.050Z,8.06
2019-04-30T07:22:05.897Z,7.74
2019-04-30T07:24:33.356Z,7.37
2019-04-30T07:27:02.747Z,7.30
2019-04-30T07:29:29.939Z,7.34
2019-04-30T07:31:59.128Z,8.18
2019-04-30T07:34:26.162Z,9.84
2019-04-30T07:37:10.746Z,9.22
2019-04-30T07:39:23.402Z,9.80
2019-04-30T07:41:51.581Z,9.80
2019-04-30T07:44:31.256Z,8.53
2019-04-30T07:46:49.322Z,8.85
2019-04-30T07:49:16.566Z,8.85
2019-04-30T07:51:44.558Z,8.90
2019-04-30T07:54:12.500Z,8.53
2019-04-30T07:56:41.760Z,8.42
2019-04-30T07:59:11.088Z,8.21
2019-04-30T08:01:58.094Z,8.47
2019-04-30T08:04:35.708Z,8.08
2019-04-30T08:07:04.279Z,6.55
2019-04-30T08:09:39.185Z,6.97
2019-04-30T08:12:00.646Z,8.47
2019-04-30T08:14:28.791Z,7.91
2019-04-30T08:16:56.128Z,7.58
2019-04-30T08:19:23.360Z,7.18
2019-04-30T08:21:50.564Z,6.87
2019-04-30T08:24:19.341Z,7.37
2019-04-30T08:26:46.671Z,7.55
2019-04-30T08:29:13.811Z,7.83
2019-04-30T08:31:41.077Z,8.06
2019-04-30T08:34:10.749Z,7.74
2019-04-30T08:36:38.662Z,6.78
2019-04-30T08:39:06.563Z,6.41
2019-04-30T08:41:33.811Z,6.55
2019-04-30T08:44:00.954Z,6.72
2019-04-30T08:46:28.689Z,6.11
2019-04-30T08:48:56.005Z,6.45
2019-04-30T08:51:23.564Z,7.80
2019-04-30T08:53:50.748Z,8.45
2019-04-30T08:56:21.603Z,8.56
2019-04-30T08:58:48.957Z,8.49
2019-04-30T09:01:16.692Z,7.81
2019-04-30T09:03:45.152Z,6.58
2019-04-30T09:06:19.422Z,7.12
2019-04-30T09:08:49.106Z,7.47
2019-04-30T09:11:25.700Z,7.24
2019-04-30T09:13:45.513Z,7.50
2019-04-30T09:16:12.756Z,8.07
2019-04-30T09:18:39.963Z,8.77
2019-04-30T09:21:08.937Z,8.91
2019-04-30T09:23:47.521Z,9.10
2019-04-30T09:26:05.436Z,9.78
2019-04-30T09:28:33.311Z,9.69
2019-04-30T09:31:00.517Z,9.21
2019-04-30T09:33:29.421Z,10.15
2019-04-30T09:35:56.612Z,10.28
2019-04-30T09:38:23.840Z,10.04
2019-04-30T09:40:51.120Z,10.77
2019-04-30T09:43:18.839Z,11.09
2019-04-30T09:45:46.351Z,13.12
2019-04-30T09:48:13.428Z,12.94
2019-04-30T09:50:40.714Z,12.28
2019-04-30T09:53:10.049Z,13.63
2019-04-30T09:55:38.943Z,16.54
2019-04-30T09:58:16.246Z,18.48
2019-04-30T10:00:36.376Z,20.90
2019-04-30T10:03:04.008Z,22.21
2019-04-30T10:05:31.582Z,22.39
2019-04-30T10:07:59.502Z,24.34
2019-04-30T10:10:31.950Z,25.33
2019-04-30T10:12:59.378Z,25.68
2019-04-30T10:15:55.384Z,26.04
2019-04-30T10:18:22.597Z,26.59
2019-04-30T10:20:49.686Z,26.81
2019-04-30T10:31:59.685Z,28.73
2019-04-30T10:34:26.855Z,29.41
2019-04-30T10:36:56.219Z,29.84
2019-04-30T10:40:04.259Z,29.13
2019-04-30T10:46:05.070Z,29.64
2019-04-30T10:48:34.061Z,30.19
2019-04-30T10:54:24.120Z,29.72
2019-04-30T11:00:35.488Z,30.05
2019-04-30T11:06:19.179Z,30.17
2019-04-30T11:08:56.089Z,30.19
2019-04-30T11:11:23.329Z,30.31
2019-04-30T11:13:50.489Z,30.11
2019-04-30T11:16:18.853Z,29.13
2019-04-30T11:22:49.008Z,29.45
2019-04-30T11:25:16.511Z,29.22
2019-04-30T11:28:46.187Z,29.86
2019-04-30T11:31:33.255Z,30.11
2019-04-30T11:39:54.660Z,29.21
2019-04-30T11:42:21.862Z,30.80
2019-04-30T11:44:49.096Z,30.74
2019-04-30T11:48:02.587Z,30.62
2019-04-30T11:50:30.169Z,30.18
2019-04-30T11:53:22.610Z,30.67
2019-04-30T11:55:43.637Z,30.47
2019-04-30T11:58:21.056Z,30.79
2019-04-30T12:04:20.176Z,30.98
2019-04-30T12:06:58.892Z,31.24
2019-04-30T12:09:45.637Z,30.52
2019-04-30T12:12:12.840Z,29.69
2019-04-30T12:14:52.083Z,30.22
2019-04-30T12:17:19.324Z,30.22
2019-04-30T12:20:08.636Z,30.17
2019-04-30T12:22:56.646Z,30.37
2019-04-30T12:25:23.850Z,30.22
2019-04-30T12:27:51.097Z,30.34
2019-04-30T12:31:00.988Z,31.00
2019-04-30T12:36:49.690Z,31.06
2019-04-30T12:39:29.812Z,31.05
2019-04-30T12:42:02.685Z,31.40
2019-04-30T12:44:29.865Z,31.70
2019-04-30T12:46:58.862Z,32.08
2019-04-30T12:53:03.347Z,31.24
2019-04-30T12:55:50.115Z,32.04
2019-04-30T12:58:17.335Z,30.92
2019-04-30T13:00:44.869Z,31.25
2019-04-30T13:03:11.939Z,31.39
2019-04-30T13:05:39.630Z,31.68
2019-04-30T13:08:28.534Z,31.48
2019-04-30T13:11:03.621Z,31.89
2019-04-30T13:13:42.724Z,31.44
2019-04-30T13:16:21.107Z,31.05
2019-04-30T13:18:49.363Z,31.88
2019-04-30T13:22:04.026Z,31.86
2019-04-30T13:24:31.564Z,32.86
2019-04-30T13:30:41.235Z,33.00
2019-04-30T13:33:28.835Z,32.65
2019-04-30T13:45:31.626Z,33.29
2019-04-30T13:51:32.618Z,33.45
2019-04-30T14:11:40.475Z,32.20
2019-04-30T14:14:07.656Z,31.97
2019-04-30T14:16:34.846Z,32.16
2019-04-30T14:19:02.110Z,31.59
2019-04-30T14:21:33.171Z,32.06
2019-04-30T14:24:04.632Z,30.96
2019-04-30T14:33:26.312Z,31.20
2019-04-30T14:35:49.781Z,31.38
2019-04-30T14:38:24.125Z,31.41
2019-04-30T14:50:48.988Z,31.47
2019-04-30T14:53:42.643Z,32.37
2019-04-30T14:56:49.427Z,32.56
2019-04-30T14:59:55.612Z,32.88
2019-04-30T15:11:45.042Z,32.29
2019-04-30T15:14:12.235Z,32.03
2019-04-30T15:19:40.538Z,32.11
2019-04-30T15:26:22.222Z,32.76
2019-04-30T15:28:42.184Z,33.00
2019-04-30T15:37:32.119Z,32.95
2019-04-30T15:40:20.575Z,33.38
2019-04-30T15:42:49.740Z,33.60
2019-04-30T15:45:19.064Z,33.47
2019-04-30T15:47:46.422Z,33.14
2019-04-30T15:50:13.904Z,32.83
2019-04-30T15:52:41.085Z,32.72
2019-04-30T15:55:09.193Z,32.76
2019-04-30T15:57:55.413Z,33.16
2019-04-30T16:00:23.361Z,33.64
2019-04-30T16:03:00.133Z,34.16
2019-04-30T16:05:35.381Z,35.06
2019-04-30T16:08:31.342Z,34.54
2019-04-30T16:11:36.068Z,34.70
2019-04-30T16:14:11.979Z,34.72
2019-04-30T16:16:41.739Z,34.98
2019-04-30T16:19:09.227Z,34.62
2019-04-30T16:21:36.468Z,35.03
2019-04-30T16:24:03.776Z,34.97
2019-04-30T16:26:31.263Z,35.31
2019-04-30T16:28:58.670Z,35.49
2019-04-30T16:31:25.844Z,35.68
2019-04-30T16:33:53.039Z,35.43
2019-04-30T16:36:20.283Z,35.79
2019-04-30T16:38:48.713Z,35.70
2019-04-30T16:41:28.477Z,35.80
2019-04-30T16:43:45.162Z,35.91
2019-04-30T16:46:12.386Z,36.33
2019-04-30T16:48:39.554Z,36.44
2019-04-30T16:51:09.050Z,36.50
2019-04-30T16:53:35.952Z,36.62
2019-04-30T16:56:03.722Z,36.93
2019-04-30T16:58:50.671Z,36.68
2019-04-30T17:01:17.901Z,36.28
2019-04-30T17:03:47.396Z,36.93
2019-04-30T17:06:16.978Z,37.15
2019-04-30T17:08:50.458Z,37.43
2019-04-30T17:11:38.619Z,37.55
2019-04-30T17:14:09.334Z,37.72
2019-04-30T17:16:36.568Z,37.42
2019-04-30T17:19:04.031Z,37.13
2019-04-30T17:21:31.490Z,36.81
2019-04-30T17:23:58.929Z,36.50
2019-04-30T17:26:26.217Z,36.53
2019-04-30T17:28:53.407Z,36.87
2019-04-30T17:31:20.602Z,36.85
2019-04-30T17:33:48.183Z,36.89
2019-04-30T17:36:15.344Z,37.13
2019-04-30T17:38:42.537Z,37.66
2019-04-30T17:41:09.793Z,37.72
2019-04-30T17:43:36.967Z,37.57
2019-04-30T17:46:04.333Z,37.93
2019-04-30T17:48:31.610Z,37.97
2019-04-30T17:50:59.418Z,38.22
2019-04-30T17:53:28.669Z,38.28
2019-04-30T17:55:55.970Z,38.48
2019-04-30T17:58:23.414Z,38.71
2019-04-30T18:00:53.665Z,39.10
2019-04-30T18:03:21.224Z,39.66
2019-04-30T18:05:49.188Z,40.23
2019-04-30T18:08:16.473Z,40.31
2019-04-30T18:10:43.810Z,41.11
2019-04-30T18:13:11.187Z,41.69
2019-04-30T18:15:38.460Z,41.48
2019-04-30T18:18:23.130Z,42.03
2019-04-30T18:21:21.760Z,42.30
2019-04-30T18:24:08.718Z,42.17
2019-04-30T18:26:41.136Z,42.81
2019-04-30T18:29:08.396Z,43.04
2019-04-30T18:31:35.640Z,43.40
2019-04-30T18:34:02.844Z,43.69
2019-04-30T18:36:30.217Z,44.14
2019-04-30T18:38:59.022Z,44.55
2019-04-30T18:41:26.267Z,44.84
2019-04-30T18:43:53.461Z,45.28
2019-04-30T18:46:20.973Z,45.62
2019-04-30T18:48:49.415Z,45.97
2019-04-30T18:51:32.914Z,46.10
2019-04-30T18:53:49.352Z,46.21
2019-04-30T18:56:16.758Z,46.53
2019-04-30T18:58:43.961Z,47.05
2019-04-30T19:01:11.193Z,47.25
2019-04-30T19:03:39.135Z,47.55
2019-04-30T19:06:22.480Z,47.91
2019-04-30T19:08:50.190Z,48.00
2019-04-30T19:11:39.470Z,48.30
2019-04-30T19:14:31.904Z,48.45
2019-04-30T19:17:19.464Z,48.55
2019-04-30T19:20:00.088Z,48.75
2019-04-30T19:22:28.620Z,48.91
2019-04-30T19:24:59.512Z,49.22
2019-04-30T19:27:25.523Z,49.13
2019-04-30T19:29:52.757Z,48.98
2019-04-30T19:32:19.974Z,49.15
2019-04-30T19:34:48.987Z,49.65
2019-04-30T19:37:16.198Z,49.78
2019-04-30T19:39:43.364Z,49.67
2019-04-30T19:42:10.612Z,49.97
2019-04-30T19:44:39.504Z,50.30
2019-04-30T19:47:06.783Z,50.07
2019-04-30T19:49:33.995Z,50.03
2019-04-30T19:52:08.433Z,50.63
2019-04-30T19:54:30.431Z,50.68
2019-04-30T19:56:58.607Z,51.09
2019-04-30T19:59:25.769Z,51.39
2019-04-30T20:01:53.029Z,51.73
2019-04-30T20:04:32.677Z,51.81
2019-04-30T20:06:49.734Z,52.26
2019-04-30T20:09:16.948Z,52.64
2019-04-30T20:11:44.180Z,53.20
2019-04-30T20:14:11.364Z,53.57
2019-04-30T20:16:40.286Z,53.82
2019-04-30T20:19:09.198Z,53.95
2019-04-30T20:21:48.092Z,54.21
2019-04-30T20:24:05.488Z,54.19
2019-04-30T20:26:32.718Z,54.13
2019-04-30T20:28:59.901Z,54.53
2019-04-30T20:31:28.771Z,54.66
2019-04-30T20:33:56.081Z,55.06
2019-04-30T20:36:23.580Z,55.20
2019-04-30T20:39:16.044Z,55.29
2019-04-30T20:41:43.106Z,55.68
2019-04-30T20:44:10.584Z,55.86
2019-04-30T20:46:39.358Z,56.07
2019-04-30T20:49:06.904Z,55.98
2019-04-30T20:51:34.143Z,56.11
2019-04-30T20:54:01.647Z,56.10
2019-04-30T20:56:29.508Z,55.97
2019-04-30T20:58:59.827Z,56.41
2019-04-30T21:01:26.195Z,56.79
2019-04-30T21:03:53.360Z,57.17
2019-04-30T21:06:20.878Z,57.87
2019-04-30T21:08:48.372Z,57.64
2019-04-30T21:11:15.605Z,57.71
2019-04-30T21:13:43.136Z,58.09
2019-04-30T21:16:10.346Z,58.26
2019-04-30T21:18:39.122Z,58.71
2019-04-30T21:21:06.304Z,58.37
2019-04-30T21:23:33.840Z,58.44
2019-04-30T21:26:01.113Z,58.44
2019-04-30T21:28:29.693Z,58.28
2019-04-30T21:30:59.350Z,57.98
2019-04-30T21:33:35.944Z,57.99
2019-04-30T21:36:18.918Z,57.85
2019-04-30T21:38:46.428Z,57.64
2019-04-30T21:41:13.959Z,57.77
2019-04-30T21:43:41.401Z,57.85
2019-04-30T21:46:09.511Z,58.04
2019-04-30T21:48:38.921Z,57.98
2019-04-30T21:51:06.489Z,58.25
2019-04-30T21:53:36.709Z,58.27
2019-04-30T21:56:11.865Z,58.53
2019-04-30T21:58:40.083Z,58.36
2019-04-30T22:01:27.196Z,58.59
2019-04-30T22:03:54.571Z,58.73
2019-04-30T22:06:23.212Z,58.87
2019-04-30T22:08:51.330Z,59.07
2019-04-30T22:11:19.810Z,58.92
2019-04-30T22:13:49.388Z,59.03
2019-04-30T22:16:20.052Z,59.35
2019-04-30T22:18:49.104Z,59.46
2019-04-30T22:21:16.859Z,59.54
2019-04-30T22:23:44.640Z,59.76
2019-04-30T22:26:12.459Z,59.91
2019-04-30T22:28:41.233Z,60.02
2019-04-30T22:31:09.659Z,60.03
2019-04-30T22:33:39.067Z,60.21
2019-04-30T22:36:35.736Z,60.38
2019-04-30T22:39:12.193Z,60.60
2019-04-30T22:41:39.877Z,60.58
2019-04-30T22:44:07.407Z,60.70
2019-04-30T22:46:35.080Z,60.61
2019-04-30T22:49:03.782Z,60.54
2019-04-30T22:51:32.318Z,60.50
2019-04-30T22:54:00.554Z,60.38
2019-04-30T22:56:28.536Z,60.22
2019-04-30T22:58:56.022Z,60.29
2019-04-30T23:01:46.996Z,60.17
2019-04-30T23:04:36.172Z,60.27
2019-04-30T23:07:06.855Z,60.62
2019-04-30T23:18:08.710Z,60.92
2019-04-30T23:20:51.669Z,61.23
2019-04-30T23:23:20.023Z,61.44
2019-04-30T23:25:47.599Z,61.49
2019-04-30T23:28:14.980Z,61.66
2019-04-30T23:30:42.562Z,61.99
2019-04-30T23:33:09.842Z,62.21
2019-04-30T23:35:37.135Z,62.28
2019-04-30T23:38:05.428Z,62.42
2019-04-30T23:40:59.205Z,62.63
2019-04-30T23:43:26.575Z,62.54
2019-04-30T23:45:53.818Z,62.58
2019-04-30T23:48:21.477Z,62.78
2019-04-30T23:50:48.700Z,62.92
2019-04-30T23:53:16.055Z,62.73
2019-04-30T23:55:43.333Z,63.15
2019-04-30T23:58:12.108Z,63.36
